createdAt,value
2019-05-30T00:00:20.591Z,8.26
2019-05-30T00:02:53.924Z,8.23
2019-05-30T00:05:27.176Z,8.23
2019-05-30T00:07:58.926Z,8.22
2019-05-30T00:10:31.194Z,8.19
2019-05-30T00:13:02.963Z,8.18
2019-05-30T00:15:35.121Z,8.14
2019-05-30T00:18:07.088Z,8.07
2019-05-30T00:20:38.988Z,8.06
2019-05-30T00:23:11.231Z,8.01
2019-05-30T00:25:44.814Z,7.94
2019-05-30T00:28:16.756Z,7.92
2019-05-30T00:30:48.744Z,7.90
2019-05-30T00:33:20.613Z,7.87
2019-05-30T00:35:52.601Z,7.82
2019-05-30T00:38:24.450Z,7.82
2019-05-30T00:40:57.817Z,7.79
2019-05-30T00:43:29.731Z,7.76
2019-05-30T00:46:04.213Z,7.72
2019-05-30T00:48:36.240Z,7.72
2019-05-30T00:51:08.653Z,7.70
2019-05-30T00:53:40.536Z,7.62
2019-05-30T00:56:13.204Z,7.54
2019-05-30T00:58:44.976Z,7.47
2019-05-30T01:01:17.250Z,7.40
2019-05-30T01:03:48.982Z,7.37
2019-05-30T01:06:21.166Z,7.36
2019-05-30T01:08:53.023Z,7.34
2019-05-30T01:11:25.498Z,7.35
2019-05-30T01:13:57.262Z,7.32
2019-05-30T01:16:29.524Z,7.27
2019-05-30T01:19:01.342Z,7.23
2019-05-30T01:21:33.343Z,7.20
2019-05-30T01:24:05.671Z,7.17
2019-05-30T01:26:38.198Z,7.14
2019-05-30T01:29:10.228Z,7.09
2019-05-30T01:31:42.530Z,7.10
2019-05-30T01:34:14.318Z,7.05
2019-05-30T01:36:46.351Z,6.97
2019-05-30T01:39:18.138Z,6.92
2019-05-30T01:41:50.481Z,6.90
2019-05-30T01:44:22.282Z,6.89
2019-05-30T01:46:54.314Z,6.87
2019-05-30T01:49:26.152Z,6.85
2019-05-30T01:51:58.375Z,6.87
2019-05-30T01:54:30.482Z,6.84
2019-05-30T01:57:02.661Z,6.85
2019-05-30T01:59:34.449Z,6.84
2019-05-30T02:02:07.257Z,6.82
2019-05-30T02:04:39.194Z,6.78
2019-05-30T02:07:11.046Z,6.72
2019-05-30T02:09:42.789Z,6.72
2019-05-30T02:12:15.192Z,6.68
2019-05-30T02:14:47.026Z,6.67
2019-05-30T02:17:19.123Z,6.66
2019-05-30T02:19:50.919Z,6.63
2019-05-30T02:22:23.031Z,6.64
2019-05-30T02:24:54.844Z,6.61
2019-05-30T02:27:27.268Z,6.58
2019-05-30T02:30:00.065Z,6.57
2019-05-30T02:32:32.248Z,6.59
2019-05-30T02:35:05.335Z,6.54
2019-05-30T02:37:37.986Z,6.50
2019-05-30T02:40:14.823Z,6.46
2019-05-30T02:42:44.787Z,6.43
2019-05-30T02:45:18.333Z,6.42
2019-05-30T02:47:50.344Z,6.46
2019-05-30T02:50:22.420Z,6.47
2019-05-30T02:52:54.485Z,6.44
2019-05-30T02:55:26.220Z,6.42
2019-05-30T02:57:58.536Z,6.47
2019-05-30T03:00:38.022Z,6.52
2019-05-30T03:03:13.931Z,6.54
2019-05-30T03:05:43.490Z,6.56
2019-05-30T03:08:15.454Z,6.60
2019-05-30T03:10:47.750Z,6.62
2019-05-30T03:13:20.943Z,6.64
2019-05-30T03:15:53.418Z,6.69
2019-05-30T03:18:25.707Z,6.72
2019-05-30T03:20:57.443Z,6.78
2019-05-30T03:23:29.668Z,6.81
2019-05-30T03:26:02.581Z,6.82
2019-05-30T03:28:35.067Z,6.86
2019-05-30T03:31:21.219Z,6.91
2019-05-30T03:33:43.429Z,6.93
2019-05-30T03:36:27.663Z,7.00
2019-05-30T03:38:48.970Z,7.07
2019-05-30T03:41:20.736Z,7.14
2019-05-30T03:43:52.897Z,7.19
2019-05-30T03:46:30.349Z,7.22
2019-05-30T03:49:06.741Z,7.29
2019-05-30T03:51:42.662Z,7.33
2019-05-30T03:54:15.989Z,7.41
2019-05-30T03:56:55.600Z,7.46
2019-05-30T03:59:36.703Z,7.53
2019-05-30T04:02:31.222Z,7.58
2019-05-30T04:05:11.252Z,7.64
2019-05-30T04:07:49.373Z,7.70
2019-05-30T04:10:25.417Z,7.76
2019-05-30T04:13:42.852Z,7.82
2019-05-30T04:16:15.747Z,7.87
2019-05-30T04:18:47.907Z,7.95
2019-05-30T04:21:21.653Z,7.99
2019-05-30T04:23:53.191Z,8.07
2019-05-30T04:26:25.423Z,8.12
2019-05-30T04:28:57.203Z,8.18
2019-05-30T04:31:29.346Z,8.16
2019-05-30T04:34:01.139Z,8.27
2019-05-30T04:36:33.009Z,8.39
2019-05-30T04:39:06.679Z,8.47
2019-05-30T04:41:38.598Z,8.50
2019-05-30T04:44:11.994Z,8.60
2019-05-30T04:46:44.909Z,8.68
2019-05-30T04:49:17.345Z,8.76
2019-05-30T04:51:51.250Z,8.87
2019-05-30T04:54:23.995Z,8.97
2019-05-30T04:56:55.808Z,9.05
2019-05-30T04:59:27.666Z,9.13
2019-05-30T05:01:59.785Z,9.22
2019-05-30T05:04:31.544Z,9.28
2019-05-30T05:07:03.771Z,9.39
2019-05-30T05:09:35.526Z,9.48
2019-05-30T05:12:07.684Z,9.59
2019-05-30T05:14:39.423Z,9.72
2019-05-30T05:17:12.717Z,9.81
2019-05-30T05:19:44.532Z,9.89
2019-05-30T05:22:17.021Z,10.01
2019-05-30T05:24:49.034Z,10.16
2019-05-30T05:27:21.753Z,10.31
2019-05-30T05:29:53.790Z,10.44
2019-05-30T05:32:25.585Z,10.40
2019-05-30T05:34:57.383Z,10.59
2019-05-30T05:37:29.259Z,10.76
2019-05-30T05:40:01.030Z,10.88
2019-05-30T05:42:33.305Z,11.07
2019-05-30T05:45:05.926Z,11.22
2019-05-30T05:47:37.806Z,11.38
2019-05-30T05:50:10.681Z,11.45
2019-05-30T05:52:42.653Z,11.51
2019-05-30T05:55:14.504Z,11.66
2019-05-30T05:57:46.345Z,11.83
2019-05-30T06:00:19.051Z,12.01
2019-05-30T06:02:52.444Z,12.19
2019-05-30T06:05:24.374Z,12.38
2019-05-30T06:07:56.337Z,12.56
2019-05-30T06:10:28.114Z,12.75
2019-05-30T06:13:00.101Z,12.91
2019-05-30T06:15:31.885Z,13.07
2019-05-30T06:18:04.264Z,13.22
2019-05-30T06:20:36.131Z,13.37
2019-05-30T06:23:07.983Z,13.41
2019-05-30T06:25:39.790Z,13.44
2019-05-30T06:28:11.916Z,13.38
2019-05-30T06:30:43.967Z,13.44
2019-05-30T06:33:16.046Z,13.60
2019-05-30T06:35:47.800Z,13.65
2019-05-30T06:38:20.989Z,13.50
2019-05-30T06:40:53.116Z,13.45
2019-05-30T06:43:26.127Z,13.41
2019-05-30T06:45:59.427Z,13.58
2019-05-30T06:48:31.618Z,13.89
2019-05-30T06:51:03.414Z,14.12
2019-05-30T06:53:35.261Z,14.26
2019-05-30T06:56:07.376Z,14.42
2019-05-30T06:58:48.470Z,14.58
2019-05-30T07:01:12.699Z,14.77
2019-05-30T07:03:44.992Z,14.93
2019-05-30T07:06:17.636Z,14.90
2019-05-30T07:08:50.296Z,15.02
2019-05-30T07:11:22.685Z,15.06
2019-05-30T07:13:54.831Z,15.11
2019-05-30T07:16:27.356Z,15.19
2019-05-30T07:19:01.015Z,15.27
2019-05-30T07:21:33.899Z,15.42
2019-05-30T07:24:06.131Z,15.55
2019-05-30T07:26:38.539Z,15.62
2019-05-30T07:29:10.404Z,15.84
2019-05-30T07:31:42.216Z,16.04
2019-05-30T07:34:14.438Z,15.99
2019-05-30T07:36:46.234Z,16.19
2019-05-30T07:39:18.040Z,16.33
2019-05-30T07:42:05.292Z,16.21
2019-05-30T07:44:24.511Z,16.47
2019-05-30T07:46:56.371Z,16.55
2019-05-30T07:49:28.577Z,16.51
2019-05-30T07:52:00.447Z,16.55
2019-05-30T07:54:33.063Z,16.76
2019-05-30T07:57:05.097Z,16.81
2019-05-30T07:59:37.049Z,17.00
2019-05-30T08:02:09.292Z,17.01
2019-05-30T08:04:41.425Z,17.18
2019-05-30T08:07:13.226Z,17.26
2019-05-30T08:09:45.006Z,17.46
2019-05-30T08:12:16.744Z,17.75
2019-05-30T08:14:48.727Z,17.82
2019-05-30T08:17:20.479Z,17.46
2019-05-30T08:19:52.752Z,17.60
2019-05-30T08:22:24.552Z,17.96
2019-05-30T08:24:56.505Z,18.07
2019-05-30T08:27:28.250Z,18.05
2019-05-30T08:30:00.140Z,17.83
2019-05-30T08:32:32.479Z,18.20
2019-05-30T08:35:05.492Z,18.44
2019-05-30T08:37:37.413Z,18.56
2019-05-30T08:40:09.707Z,18.78
2019-05-30T08:42:41.467Z,18.57
2019-05-30T08:45:14.298Z,18.73
2019-05-30T08:47:46.107Z,18.69
2019-05-30T08:50:19.280Z,18.75
2019-05-30T08:52:51.090Z,18.71
2019-05-30T08:55:22.924Z,18.74
2019-05-30T08:57:54.886Z,19.02
2019-05-30T09:00:29.193Z,19.29
2019-05-30T09:03:00.976Z,19.55
2019-05-30T09:05:33.175Z,19.14
2019-05-30T09:08:04.936Z,19.14
2019-05-30T09:10:37.789Z,19.35
2019-05-30T09:13:10.583Z,19.73
2019-05-30T09:15:43.047Z,20.06
2019-05-30T09:18:15.015Z,19.97
2019-05-30T09:20:47.530Z,20.19
2019-05-30T09:23:19.286Z,20.47
2019-05-30T09:25:51.491Z,20.29
2019-05-30T09:28:23.266Z,20.26
2019-05-30T09:30:55.432Z,20.12
2019-05-30T09:33:27.232Z,20.42
2019-05-30T09:36:12.265Z,20.58
2019-05-30T09:38:32.887Z,20.93
2019-05-30T09:41:04.914Z,21.13
2019-05-30T09:43:36.847Z,20.95
2019-05-30T09:46:08.934Z,21.04
2019-05-30T09:48:42.049Z,21.40
2019-05-30T09:51:14.446Z,21.51
2019-05-30T09:53:46.193Z,21.69
2019-05-30T09:56:18.241Z,21.96
2019-05-30T09:58:50.104Z,21.87
2019-05-30T10:01:21.962Z,21.81
2019-05-30T10:03:53.724Z,21.91
2019-05-30T10:06:29.341Z,22.09
2019-05-30T10:08:59.401Z,22.18
2019-05-30T10:11:31.359Z,22.25
2019-05-30T10:14:03.172Z,22.25
2019-05-30T10:16:35.386Z,22.46
2019-05-30T10:19:08.290Z,22.64
2019-05-30T10:21:40.630Z,22.79
2019-05-30T10:24:12.403Z,22.79
2019-05-30T10:26:45.593Z,22.84
2019-05-30T10:29:17.776Z,23.00
2019-05-30T10:31:50.603Z,22.69
2019-05-30T10:34:22.552Z,22.56
2019-05-30T10:36:55.699Z,22.71
2019-05-30T10:39:27.521Z,22.97
2019-05-30T10:41:59.614Z,23.17
2019-05-30T10:44:31.497Z,22.90
2019-05-30T10:47:03.447Z,22.64
2019-05-30T10:49:35.465Z,22.92
2019-05-30T10:52:07.576Z,23.03
2019-05-30T10:54:39.391Z,23.06
2019-05-30T10:57:11.398Z,23.15
2019-05-30T10:59:43.271Z,23.44
2019-05-30T11:02:16.453Z,23.55
2019-05-30T11:04:48.929Z,23.31
2019-05-30T11:08:04.871Z,23.05
2019-05-30T11:10:43.845Z,23.26
2019-05-30T11:13:18.071Z,23.63
2019-05-30T11:15:51.496Z,23.98
2019-05-30T11:18:23.722Z,23.73
2019-05-30T11:20:56.304Z,23.73
2019-05-30T11:23:29.656Z,23.95
2019-05-30T11:26:01.458Z,24.00
2019-05-30T11:28:33.233Z,23.93
2019-05-30T11:31:05.361Z,23.60
2019-05-30T11:33:37.558Z,23.32
2019-05-30T11:36:09.346Z,23.44
2019-05-30T11:38:41.655Z,23.49
2019-05-30T11:41:13.411Z,23.52
2019-05-30T11:43:45.423Z,24.06
2019-05-30T11:46:17.170Z,24.27
2019-05-30T11:48:49.552Z,24.46
2019-05-30T11:51:21.420Z,24.73
2019-05-30T11:53:53.846Z,24.81
2019-05-30T11:56:25.643Z,24.70
2019-05-30T11:58:58.101Z,24.40
2019-05-30T12:01:30.054Z,24.72
2019-05-30T12:04:02.146Z,24.88
2019-05-30T12:06:33.916Z,24.97
2019-05-30T12:09:08.615Z,25.23
2019-05-30T12:11:40.469Z,25.35
2019-05-30T12:14:12.462Z,25.57
2019-05-30T12:16:44.284Z,25.39
2019-05-30T12:19:16.105Z,25.18
2019-05-30T12:21:47.903Z,25.21
2019-05-30T12:24:20.220Z,25.39
2019-05-30T12:26:52.010Z,25.42
2019-05-30T12:29:23.994Z,25.78
2019-05-30T12:31:58.403Z,26.09
2019-05-30T12:34:29.342Z,26.36
2019-05-30T12:37:01.096Z,26.50
2019-05-30T12:39:33.830Z,26.61
2019-05-30T12:42:05.776Z,26.77
2019-05-30T12:44:37.873Z,26.95
2019-05-30T12:47:09.712Z,27.28
2019-05-30T12:49:41.688Z,26.93
2019-05-30T12:52:13.476Z,26.74
2019-05-30T12:54:45.620Z,27.25
2019-05-30T12:57:17.376Z,28.15
2019-05-30T12:59:49.464Z,29.26
2019-05-30T13:02:21.254Z,30.39
2019-05-30T13:04:53.283Z,31.88
2019-05-30T13:07:25.074Z,33.31
2019-05-30T13:09:57.160Z,33.93
2019-05-30T13:12:28.981Z,33.76
2019-05-30T13:15:01.952Z,33.60
2019-05-30T13:17:33.931Z,32.83
2019-05-30T13:20:07.790Z,33.14
2019-05-30T13:22:40.251Z,32.65
2019-05-30T13:25:15.331Z,31.91
2019-05-30T13:27:47.100Z,32.72
2019-05-30T13:30:21.091Z,33.57
2019-05-30T13:32:52.885Z,32.61
2019-05-30T13:35:24.932Z,31.06
2019-05-30T13:37:57.156Z,30.59
2019-05-30T13:40:29.470Z,29.93
2019-05-30T13:43:01.930Z,29.06
2019-05-30T13:45:35.340Z,28.63
2019-05-30T13:48:08.530Z,28.53
2019-05-30T13:50:40.808Z,28.78
2019-05-30T13:53:12.612Z,28.77
2019-05-30T13:55:45.251Z,29.00
2019-05-30T13:58:17.117Z,29.53
2019-05-30T14:00:48.979Z,31.20
2019-05-30T14:03:20.790Z,33.07
2019-05-30T14:05:52.795Z,35.84
2019-05-30T14:08:24.634Z,38.41
2019-05-30T14:10:56.764Z,40.03
2019-05-30T14:13:29.726Z,41.84
2019-05-30T14:16:02.746Z,42.48
2019-05-30T14:18:34.761Z,41.55
2019-05-30T14:21:07.514Z,41.91
2019-05-30T14:23:39.512Z,42.17
2019-05-30T14:26:12.395Z,42.48
2019-05-30T14:28:44.905Z,42.32
2019-05-30T14:31:16.838Z,41.63
2019-05-30T14:33:48.689Z,40.53
2019-05-30T14:36:20.516Z,39.36
2019-05-30T14:38:58.523Z,38.61
2019-05-30T14:41:26.491Z,37.82
2019-05-30T14:43:58.358Z,37.45
2019-05-30T14:46:30.461Z,37.86
2019-05-30T14:49:02.254Z,37.91
2019-05-30T14:51:35.383Z,38.47
2019-05-30T14:54:07.372Z,39.41
2019-05-30T14:56:39.645Z,40.33
2019-05-30T14:59:11.434Z,40.51
2019-05-30T15:01:43.285Z,39.63
2019-05-30T15:04:15.144Z,37.02
2019-05-30T15:06:46.995Z,35.57
2019-05-30T15:09:25.923Z,35.15
2019-05-30T15:11:52.878Z,34.84
2019-05-30T15:14:24.702Z,34.92
2019-05-30T15:16:56.624Z,34.69
2019-05-30T15:19:28.401Z,34.50
2019-05-30T15:22:00.514Z,34.89
2019-05-30T15:24:32.440Z,33.95
2019-05-30T15:27:05.871Z,32.78
2019-05-30T15:29:38.105Z,32.40
2019-05-30T15:32:10.322Z,31.87
2019-05-30T15:34:42.279Z,31.49
2019-05-30T15:37:14.855Z,31.51
2019-05-30T15:39:46.716Z,31.84
2019-05-30T15:42:18.969Z,32.20
2019-05-30T15:44:50.771Z,31.92
2019-05-30T15:47:22.573Z,31.41
2019-05-30T15:49:54.359Z,30.68
2019-05-30T15:52:26.211Z,30.15
2019-05-30T15:54:58.048Z,29.70
2019-05-30T15:57:30.049Z,29.34
2019-05-30T16:00:01.892Z,29.05
2019-05-30T16:02:34.410Z,28.86
2019-05-30T16:05:07.495Z,28.46
2019-05-30T16:07:39.539Z,28.25
2019-05-30T16:10:12.828Z,28.23
2019-05-30T16:12:45.356Z,28.53
2019-05-30T16:15:17.752Z,28.66
2019-05-30T16:17:49.614Z,28.57
2019-05-30T16:20:22.053Z,28.04
2019-05-30T16:22:54.103Z,27.25
2019-05-30T16:25:25.949Z,26.47
2019-05-30T16:27:58.142Z,25.81
2019-05-30T16:30:30.118Z,25.26
2019-05-30T16:33:02.153Z,24.79
2019-05-30T16:35:33.993Z,24.55
2019-05-30T16:38:06.088Z,24.25
2019-05-30T16:40:37.856Z,24.17
2019-05-30T16:43:10.056Z,24.14
2019-05-30T16:45:41.856Z,24.13
2019-05-30T16:48:14.318Z,24.11
2019-05-30T16:50:46.489Z,24.07
2019-05-30T16:53:20.023Z,23.99
2019-05-30T16:55:54.176Z,23.84
2019-05-30T16:58:26.707Z,23.65
2019-05-30T17:00:58.525Z,23.49
2019-05-30T17:03:30.458Z,23.33
2019-05-30T17:06:02.264Z,23.14
2019-05-30T17:08:35.946Z,22.97
2019-05-30T17:11:07.831Z,22.80
2019-05-30T17:13:39.705Z,22.63
2019-05-30T17:16:11.494Z,22.50
2019-05-30T17:18:43.320Z,22.34
2019-05-30T17:21:16.384Z,22.16
2019-05-30T17:23:49.492Z,21.92
2019-05-30T17:26:21.349Z,21.70
2019-05-30T17:28:53.667Z,21.40
2019-05-30T17:31:26.148Z,21.15
2019-05-30T17:33:58.396Z,21.04
2019-05-30T17:36:30.247Z,20.84
2019-05-30T17:39:02.142Z,20.65
2019-05-30T17:41:35.710Z,20.46
2019-05-30T17:44:08.017Z,20.41
2019-05-30T17:46:39.971Z,20.37
2019-05-30T17:49:13.260Z,20.33
2019-05-30T17:51:45.098Z,20.27
2019-05-30T17:54:16.891Z,20.15
2019-05-30T17:56:48.693Z,19.94
2019-05-30T17:59:20.547Z,19.73
2019-05-30T18:01:52.422Z,19.63
2019-05-30T18:04:24.573Z,19.48
2019-05-30T18:06:56.461Z,19.32
2019-05-30T18:09:29.126Z,19.17
2019-05-30T18:12:01.218Z,19.03
2019-05-30T18:14:33.504Z,18.93
2019-05-30T18:17:05.340Z,18.89
2019-05-30T18:19:37.311Z,18.76
2019-05-30T18:22:09.125Z,18.40
2019-05-30T18:24:41.026Z,18.40
2019-05-30T18:27:12.883Z,18.27
2019-05-30T18:29:46.206Z,18.18
2019-05-30T18:32:18.092Z,18.12
2019-05-30T18:34:50.135Z,18.07
2019-05-30T18:37:22.283Z,17.96
2019-05-30T18:39:54.647Z,17.91
2019-05-30T18:42:27.327Z,17.88
2019-05-30T18:45:00.511Z,17.77
2019-05-30T18:47:33.158Z,17.71
2019-05-30T18:50:06.016Z,17.63
2019-05-30T18:52:37.924Z,17.53
2019-05-30T18:55:11.402Z,17.44
2019-05-30T18:57:43.382Z,17.37
2019-05-30T19:00:17.656Z,17.29
2019-05-30T19:02:49.795Z,17.16
2019-05-30T19:05:22.205Z,17.02
2019-05-30T19:07:54.207Z,16.88
2019-05-30T19:10:26.231Z,16.74
2019-05-30T19:12:58.028Z,16.62
2019-05-30T19:15:31.499Z,16.48
2019-05-30T19:18:03.411Z,16.37
2019-05-30T19:20:35.845Z,16.26
2019-05-30T19:23:07.751Z,16.15
2019-05-30T19:25:39.843Z,16.03
2019-05-30T19:28:11.765Z,15.93
2019-05-30T19:30:44.299Z,15.81
2019-05-30T19:33:16.032Z,15.71
2019-05-30T19:35:49.758Z,15.61
2019-05-30T19:38:21.676Z,15.52
2019-05-30T19:40:53.809Z,15.42
2019-05-30T19:43:25.560Z,15.33
2019-05-30T19:45:57.609Z,15.27
2019-05-30T19:48:30.277Z,15.18
2019-05-30T19:51:02.349Z,15.08
2019-05-30T19:53:34.943Z,15.03
2019-05-30T19:56:07.716Z,15.00
2019-05-30T19:58:39.941Z,14.91
2019-05-30T20:01:12.251Z,14.84
2019-05-30T20:03:46.997Z,14.78
2019-05-30T20:06:17.595Z,14.73
2019-05-30T20:08:55.364Z,14.71
2019-05-30T20:11:23.290Z,14.65
2019-05-30T20:13:55.195Z,14.63
2019-05-30T20:16:27.327Z,14.63
2019-05-30T20:18:59.162Z,14.57
2019-05-30T20:21:31.745Z,14.50
2019-05-30T20:24:03.669Z,14.46
2019-05-30T20:26:36.633Z,14.45
2019-05-30T20:29:08.642Z,14.40
2019-05-30T20:31:41.499Z,14.37
2019-05-30T20:34:13.425Z,14.34
2019-05-30T20:36:46.968Z,14.30
2019-05-30T20:39:19.566Z,14.27
2019-05-30T20:41:53.945Z,14.19
2019-05-30T20:44:25.153Z,14.14
2019-05-30T20:46:57.438Z,14.08
2019-05-30T20:49:29.278Z,14.06
2019-05-30T20:52:01.371Z,14.04
2019-05-30T20:54:33.340Z,14.02
2019-05-30T20:57:05.328Z,14.00
2019-05-30T20:59:38.318Z,13.94
2019-05-30T21:02:10.714Z,13.88
2019-05-30T21:04:42.975Z,13.84
2019-05-30T21:07:16.349Z,13.84
2019-05-30T21:09:49.476Z,13.79
2019-05-30T21:12:36.940Z,13.73
2019-05-30T21:14:59.469Z,13.70
2019-05-30T21:17:35.784Z,13.63
2019-05-30T21:20:11.404Z,13.57
2019-05-30T21:22:42.405Z,13.53
2019-05-30T21:25:14.815Z,13.46
2019-05-30T21:27:47.301Z,13.44
2019-05-30T21:30:19.673Z,13.41
2019-05-30T21:32:52.524Z,13.36
2019-05-30T21:35:25.366Z,13.34
2019-05-30T21:37:57.699Z,13.31
2019-05-30T21:40:29.789Z,13.28
2019-05-30T21:43:06.701Z,13.22
2019-05-30T21:45:35.199Z,13.15
2019-05-30T21:48:07.813Z,13.15
2019-05-30T21:50:43.045Z,13.12
2019-05-30T21:53:14.507Z,13.10
2019-05-30T21:55:46.323Z,13.08
2019-05-30T21:58:18.330Z,13.06
2019-05-30T22:01:36.156Z,13.02
2019-05-30T22:04:09.153Z,12.96
2019-05-30T22:06:41.271Z,12.90
2019-05-30T22:09:13.675Z,12.89
2019-05-30T22:11:45.675Z,12.86
2019-05-30T22:14:17.840Z,12.85
2019-05-30T22:16:50.325Z,12.83
2019-05-30T22:19:22.710Z,12.80
2019-05-30T22:21:54.601Z,12.73
2019-05-30T22:24:26.712Z,12.78
2019-05-30T22:26:58.484Z,12.79
2019-05-30T22:29:30.343Z,12.76
2019-05-30T22:32:02.150Z,12.77
2019-05-30T22:34:34.557Z,12.82
2019-05-30T22:37:06.309Z,12.78
2019-05-30T22:39:38.277Z,12.78
2019-05-30T22:42:10.083Z,12.78
2019-05-30T22:44:42.110Z,12.75
2019-05-30T22:47:13.882Z,12.76
2019-05-30T22:49:46.677Z,12.76
2019-05-30T22:52:18.700Z,12.72
2019-05-30T22:54:51.233Z,12.71
2019-05-30T22:57:23.120Z,12.68
2019-05-30T22:59:55.424Z,12.67
2019-05-30T23:02:27.180Z,12.68
2019-05-30T23:04:59.280Z,12.64
2019-05-30T23:07:31.189Z,12.64
2019-05-30T23:10:03.107Z,12.61
2019-05-30T23:12:34.912Z,12.56
2019-05-30T23:15:07.864Z,12.51
2019-05-30T23:17:39.628Z,12.50
2019-05-30T23:20:12.082Z,12.45
2019-05-30T23:22:43.867Z,12.42
2019-05-30T23:25:17.928Z,12.39
2019-05-30T23:27:50.167Z,12.36
2019-05-30T23:30:22.527Z,12.36
2019-05-30T23:32:54.420Z,12.32
2019-05-30T23:35:26.501Z,12.30
2019-05-30T23:37:58.860Z,12.26
2019-05-30T23:40:30.802Z,12.25
2019-05-30T23:43:02.559Z,12.22
2019-05-30T23:45:34.784Z,12.16
2019-05-30T23:48:07.491Z,12.15
2019-05-30T23:50:39.723Z,12.10
2019-05-30T23:53:11.460Z,12.06
2019-05-30T23:55:43.547Z,12.02
2019-05-30T23:58:15.300Z,12.03
